Granger Chevrolet 5K

Overall Finish List

October 20, 2018


Results By Run Houston Timing Run Houston Timing

5K

Open

Place Name Bib No Age Gender Age Group Chip Time Gun Time Pace
1 Logan Russell 821 16 M 1 10-19 19:08.1 19:10.6 6:10/M
2 Amanda Britnell 875 35 F 1 30-39 22:45.8 22:51.1 7:20/M
3 Shelby Pinner 804 25 M 1 20-29 23:10.7 23:14.8 7:28/M
4 Andy Bates 611 39 M 1 30-39 23:14.4 23:22.5 7:30/M
5 Robin Moran 850 61 F 1 60-69 23:27.1 23:32.8 7:34/M
6 Maverick Starkey 834 26 M 2 20-29 23:33.0 23:36.4 7:36/M
7 Cadence Harrelson 662 14 F 1 10-19 23:39.5 23:45.9 7:38/M
8 CHRIS HEISNER 665 44 M 1 40-49 24:16.3 24:21.4 7:50/M
9 Orlean Billiot 613 45 M 2 40-49 24:30.7 24:35.6 7:54/M
10 Mitchell Mcdaniel 691 33 M 2 30-39 24:45.3 24:50.9 7:59/M
11 Jarrod Brown 852 45 M 3 40-49 24:48.6 24:51.9 8:00/M
12 Brenda Jones 671 42 F 1 40-49 26:28.8 26:35.8 8:32/M
13 Jessica Catlin 629 23 F 1 20-29 26:34.4 26:40.7 8:34/M
14 Paul Dickerson 643 50 M 1 50-59 27:03.9 27:06.8 8:44/M
15 DAVID JONES 672 49 M 4 40-49 27:06.0 27:09.2 8:45/M
16 Brandon Scudder 827 39 M 3 30-39 28:32.3 28:38.0 9:12/M
17 Daren Redfearn 872 22 M 3 20-29 28:13.8 28:38.6 9:06/M
18 Savanna Smith 873 23 F 2 20-29 28:16.4 28:38.9 9:07/M
19 Rick Kinder 675 64 M 1 60-69 28:40.3 28:48.0 9:15/M
20 Paul Burkholder 625 24 M 4 20-29 28:47.2 28:48.6 9:17/M
21 Azatiany Correa 635 40 F 2 40-49 28:45.3 28:51.3 9:16/M
22 John Cross 637 54 M 2 50-59 29:25.0 29:25.0 9:29/M
23 Bonneaux Gary 880 54 M 3 50-59 29:56.3 30:00.2 9:39/M
24 Dustin Tilley 839 37 M 4 30-39 29:55.3 30:03.1 9:39/M
25 Halee Anthony 605 33 F 2 30-39 30:08.3 30:15.5 9:43/M
26 Allison Calfee 628 28 F 3 20-29 30:17.0 30:32.0 9:46/M
27 Kimme Potter 805 39 F 3 30-39 30:26.1 30:34.1 9:49/M
28 Cody Cupit 638 27 M 5 20-29 30:29.4 30:34.5 9:50/M
29 Tamara Rosenthal 819 47 F 3 40-49 30:31.3 30:35.2 9:51/M
30 Nicole Thomas 838 45 F 4 40-49 30:37.7 30:37.7 9:53/M
31 Gina Welborn 845 56 F 1 50-59 30:56.9 31:00.8 9:59/M
32 Meg Baertl Brown 858 41 F 5 40-49 31:07.7 31:13.6 10:02/M
33 Mikki Williams 865 40 F 6 40-49 30:58.6 31:15.2 9:59/M
34 Michelle Flosenzier 878 53 F 2 50-59 30:55.4 31:17.3 9:58/M
35 Vance Flosenzier 876 55 M 4 50-59 30:55.1 31:17.4 9:58/M
36 Cathy Cross 636 54 F 3 50-59 31:06.8 31:21.2 10:02/M
37 Kelsey Mathiasen Bates 689 31 F 4 30-39 31:18.5 31:26.3 10:06/M
38 Haley Cupit 639 28 F 4 20-29 31:34.6 31:34.6 10:11/M
39 George Russell 820 56 M 5 50-59 31:41.2 31:47.8 10:13/M
40 Samuel Wilmore 863 30 M 5 30-39 31:49.0 31:57.5 10:16/M
41 Brooke Garza 656 23 F 5 20-29 31:35.9 32:01.8 10:11/M
42 Julie Barton 610 40 F 7 40-49 31:45.7 32:11.9 10:15/M
43 GAYLA RHODES 810 61 F 2 60-69 32:16.3 32:16.3 10:25/M
44 Trisha Barnes 609 33 F 5 30-39 32:12.0 32:19.3 10:23/M
45 allana dews 642 41 F 8 40-49 32:11.2 32:19.8 10:23/M
46 Madalyn Frey 851 20 F 6 20-29 32:25.4 32:32.3 10:27/M
47 Andrianna Kovatch 677 31 F 6 30-39 32:26.4 32:50.6 10:28/M
48 Jay Wilson 848 46 M 5 40-49 33:52.2 34:12.2 10:55/M
49 Denard Raymond 809 46 M 6 40-49 34:19.9 34:32.0 11:04/M
50 Jimmy Plasencia 864 44 M 7 40-49 34:34.3 34:42.8 11:09/M
51 Brent Stanfield 854 52 M 6 50-59 35:47.0 35:59.6 11:33/M
52 Lisa Wilson 849 42 F 9 40-49 35:58.9 36:19.0 11:36/M
53 Tammy Stanfield 853 44 F 10 40-49 36:28.7 36:41.1 11:46/M
54 Amber Chandler 630 21 F 7 20-29 36:29.7 36:41.2 11:46/M
55 Travis Love 682 16 M 2 10-19 36:48.6 36:57.6 11:52/M
56 Scott Potter 806 41 M 8 40-49 38:01.7 38:11.0 12:16/M
57 Jennifer Cole 634 32 F 7 30-39 38:05.7 38:18.6 12:17/M
58 Ava Arnold 607 8 F 1 1- 9 38:54.4 39:30.2 12:33/M
59 Camden Harrelson 663 13 M 3 10-19 39:53.2 40:03.7 12:52/M
60 Kelsy Arnold 608 32 F 8 30-39 39:46.4 40:21.5 12:50/M
61 BOBBY ANDERSON 604 57 M 7 50-59 40:12.6 40:28.1 12:58/M
62 Patrick Harrelson 664 37 M 6 30-39 40:18.9 40:29.5 13:00/M
63 Sara West 866 27 F 8 20-29 40:26.8 40:35.8 13:03/M
64 Desiree' Raymond 874 23 F 9 20-29 41:00.2 41:13.1 13:14/M
65 Rick Boaz 618 52 M 8 50-59 41:55.7 42:09.3 13:31/M
66 Charles Spivey 831 57 M 9 50-59 41:44.9 42:14.4 13:28/M
67 Aurora Garcia 655 23 F 10 20-29 42:49.8 43:10.9 13:49/M
68 kelli smith 830 38 F 9 30-39 43:41.4 43:56.5 14:05/M
69 Brandy Gentz 657 22 F 11 20-29 43:26.0 44:01.4 14:01/M
70 Cara Love 681 49 F 11 40-49 44:24.1 44:42.7 14:19/M
71 Chelsea Fountain 654 26 F 12 20-29 44:51.2 45:28.2 14:28/M
72 Miranda Stansifer 833 41 F 12 40-49 45:58.2 46:21.7 14:50/M
73 April Brothers 623 37 F 10 30-39 45:56.9 46:22.3 14:49/M
74 Cody Knott 676 37 M 7 30-39 46:06.9 46:23.4 14:52/M
75 Julie Sandifer 823 43 F 13 40-49 46:45.2 47:16.8 15:05/M
76 Alexis Blackshear 614 21 F 13 20-29 46:52.7 47:18.5 15:07/M
77 Nathan Scallon 824 32 M 8 30-39 46:38.3 47:21.3 15:03/M
78 Mike Mankopf 867 44 M 9 40-49 47:37.0 48:10.8 15:22/M
79 Lexi Tubbleville 842 12 F 2 10-19 48:24.7 48:39.7 15:37/M
80 Amy Boaz 616 12 F 3 10-19 48:23.6 48:40.1 15:36/M
81 Cheryl Kinder 674 65 F 3 60-69 48:25.6 48:45.5 15:37/M
82 Tiffani Birdon-Culpepper 855 20 F 14 20-29 43:32.7 48:58.6 14:03/M
83 Aileen McCollum 690 57 F 4 50-59 48:51.9 49:17.9 15:45/M
84 Kenita Dougharty 647 53 F 5 50-59 49:19.5 49:29.5 15:55/M
85 Chuck Long 679 59 M 10 50-59 49:28.6 49:49.0 15:57/M
86 Rachel Palermo 877 31 F 11 30-39 49:48.2 50:11.5 16:04/M
87 Theresa Trest 841 48 F 14 40-49 50:30.0 50:59.0 16:17/M
88 Sherry Majors 686 55 F 6 50-59 51:26.7 51:46.9 16:35/M
89 Abigail Blowers 615 21 F 15 20-29 52:16.5 52:36.9 16:52/M
90 Brenda Foreman 652 52 F 7 50-59 52:14.7 52:41.8 16:51/M
91 Michelle Tubbleville 843 47 F 15 40-49 52:29.1 52:47.6 16:56/M
92 Charlotte Boaz 617 46 F 16 40-49 52:26.6 52:47.8 16:55/M
93 Vickie Price 868 42 F 17 40-49 52:56.4 53:07.1 17:05/M
94 Jennifer Dommert 646 43 F 18 40-49 52:56.8 53:07.4 17:05/M
95 Heather Montagne 695 39 F 12 30-39 52:51.5 53:25.7 17:03/M
96 Megan Romero 817 24 F 16 20-29 53:23.2 53:57.0 17:13/M
97 Lisa Richards 812 54 F 8 50-59 53:27.8 53:57.3 17:15/M
98 Colbi Romero 816 27 F 17 20-29 53:24.5 53:57.5 17:14/M
99 Kellie Derouen 641 51 F 9 50-59 53:19.1 53:57.7 17:12/M
100 Michael Lopez 680 36 M 9 30-39 53:42.7 53:59.1 17:19/M
 
Place Name Bib No Age Gender Age Group Chip Time Gun Time Pace
101 Amber Nelson 801 33 F 13 30-39 53:44.2 53:59.8 17:20/M
102 Thomas Duhon 648 58 M 11 50-59 53:44.3 54:02.2 17:20/M
103 Cheri Billiot 612 55 F 10 50-59 53:32.2 54:04.0 17:16/M
104 Shawn Cain 627 45 F 19 40-49 53:32.4 54:05.3 17:16/M
105 Joan Eubanks 651 57 F 11 50-59 53:48.7 54:09.8 17:21/M
106 Angela Raley 808 62 F 4 60-69 53:50.9 54:10.3 17:22/M
107 Rachel Cannon 860 41 F 20 40-49 54:13.6 54:24.5 17:29/M
108 Joe Maglothin 685 42 M 10 40-49 54:18.2 54:37.2 17:31/M
109 Gerald MacNeil 861 7 M 1 1- 9 54:25.6 54:37.2 17:33/M
110 Robbin MacNeil 859 39 M 10 30-39 54:39.1 54:49.6 17:38/M
111 Kelci Moss 697 28 F 18 20-29 55:27.7 56:01.5 17:53/M
112 JESSICA PROUSE 807 32 F 14 30-39 55:33.5 56:05.3 17:55/M
113 Ashley Armand 606 30 F 15 30-39 55:37.2 56:05.3 17:56/M
114 Cindy HERMAN 667 46 F 21 40-49 55:37.3 56:05.4 17:56/M
115 Julie Spivey 832 49 F 22 40-49 55:37.5 56:05.7 17:56/M
116 Unknown Partic. 881 881 M 1 0- 0 55:59.3 56:17.8 18:04/M
117 Preshawn Henson 879 42 F 23 40-49 56:39.6 56:39.6 18:16/M
118 Dyan Morris 696 50 F 12 50-59 56:11.4 56:40.2 18:07/M
119 Tim Schossow 826 65 M 2 60-69 56:25.9 56:43.8 18:12/M
120 WHITNEY JONES 673 27 F 19 20-29 56:29.5 56:46.5 18:13/M
121 AMY GROFF 660 36 F 16 30-39 56:29.6 56:47.4 18:13/M
122 TED HOLSTINE 669 50 M 12 50-59 56:27.0 56:48.3 18:13/M
123 rebecca roberts 813 36 F 17 30-39 56:24.1 56:50.7 18:12/M
124 Petra Lowe 683 48 F 24 40-49 56:29.0 56:51.0 18:13/M
125 Torri Culpepper 856 13 F 4 10-19 51:27.8 56:54.9 16:36/M
126 Harli Foreman 653 17 F 5 10-19 56:24.9 56:56.8 18:12/M
127 Chauntal Romero 815 26 F 20 20-29 56:21.6 56:56.9 18:11/M
128 Meghan Toney 840 27 F 21 20-29 56:23.4 56:57.7 18:11/M
129 Anisha Smith 828 34 F 18 30-39 56:37.0 56:58.3 18:16/M
130 Tina Romero 818 53 F 13 50-59 56:25.5 56:58.3 18:12/M
131 Valen Elliott 650 20 F 22 20-29 56:25.8 57:01.4 18:12/M
132 Ida Schossow 825 63 F 5 60-69 56:45.1 57:02.1 18:18/M
133 Angie Stelly 835 51 F 14 50-59 56:48.0 57:02.8 18:19/M
134 Cindy Mims 692 60 F 6 60-69 56:46.8 57:03.8 18:19/M
135 Jane Stephenson 836 61 F 7 60-69 56:45.2 57:12.5 18:18/M
136 charley elkins 649 43 M 11 40-49 56:47.2 57:13.0 18:19/M
137 douglas allen 603 57 M 13 50-59 56:45.7 57:13.7 18:18/M
138 Dylan Dietze 644 23 M 6 20-29 57:19.3 57:19.3 18:29/M
139 Shelly Mistrot 694 41 F 25 40-49 57:18.3 57:40.9 18:29/M
140 Joey Romano 814 54 M 14 50-59 57:18.4 57:41.0 18:29/M
141 Levi Brammer 622 22 M 7 20-29 58:01.4 58:18.5 18:43/M
142 Faith Brammer 621 22 F 23 20-29 58:04.1 58:20.1 18:44/M
143 Carol Aldrich 602 49 F 26 40-49 58:03.6 58:20.8 18:44/M
144 erin byrd 626 25 F 24 20-29 58:11.5 58:36.5 18:46/M
145 Elizabeth Welch 846 60 F 8 60-69 58:28.5 58:38.7 18:52/M
146 annette bonnin 620 60 F 9 60-69 58:38.9 58:38.9 18:55/M
147 Leslie Luna 684 60 M 3 60-69 58:21.3 58:43.8 18:49/M
148 Magen Caffey 870 13 F 6 10-19 59:28.0 59:38.4 19:11/M
149 Laura Vincent 869 36 F 19 30-39 59:29.9 59:40.9 19:11/M
150 Martha Brown 624 59 F 15 50-59 1:00:28.9 1:00:45.6 19:30/M
151 Macy Samz 822 25 F 25 20-29 1:00:21.8 1:00:45.6 19:28/M
152 yousuf ahmed 601 26 M 8 20-29 1:00:23.9 1:00:46.3 19:29/M